createdAt,value
2022-11-17T00:04:15.018Z,2.50
2022-11-17T00:09:18.331Z,2.40
2022-11-17T00:14:36.727Z,2.38
2022-11-17T00:19:58.476Z,2.42
2022-11-17T00:25:01.184Z,2.38
2022-11-17T00:30:04.038Z,2.20
2022-11-17T00:35:08.501Z,2.22
2022-11-17T00:40:11.898Z,2.55
2022-11-17T00:45:14.633Z,2.50
2022-11-17T00:50:18.818Z,2.63
2022-11-17T00:55:21.576Z,2.40
2022-11-17T01:00:24.264Z,2.60
2022-11-17T01:05:32.880Z,2.28
2022-11-17T01:10:36.008Z,2.00
2022-11-17T01:15:38.679Z,2.30
2022-11-17T01:20:42.661Z,2.40
2022-11-17T01:25:45.317Z,2.28
2022-11-17T01:30:48.037Z,1.92
2022-11-17T01:35:52.032Z,2.28
2022-11-17T01:40:54.766Z,2.22
2022-11-17T01:45:57.488Z,2.20
2022-11-17T01:51:01.922Z,2.10
2022-11-17T01:56:08.139Z,1.92
2022-11-17T02:01:11.300Z,2.42
2022-11-17T02:06:18.270Z,2.40
2022-11-17T02:11:21.722Z,2.20
2022-11-17T02:16:24.419Z,1.92
2022-11-17T02:22:16.320Z,2.03
2022-11-17T02:27:45.564Z,1.95
2022-11-17T02:32:58.617Z,1.80
2022-11-17T02:38:07.293Z,1.58
2022-11-17T02:43:31.852Z,2.22
2022-11-17T02:48:37.288Z,1.98
2022-11-17T02:53:40.788Z,2.00
2022-11-17T02:58:44.773Z,2.08
2022-11-17T03:04:00.907Z,2.00
2022-11-17T03:09:11.321Z,2.05
2022-11-17T03:14:21.789Z,1.85
2022-11-17T03:19:28.154Z,1.70
2022-11-17T03:24:33.590Z,2.10
2022-11-17T03:29:41.561Z,1.90
2022-11-17T03:34:47.129Z,1.60
2022-11-17T03:39:52.705Z,1.80
2022-11-17T03:44:59.935Z,2.20
2022-11-17T03:50:05.683Z,1.70
2022-11-17T03:55:09.291Z,1.50
2022-11-17T04:00:16.017Z,1.83
2022-11-17T04:05:19.091Z,1.60
2022-11-17T04:10:23.554Z,1.90
2022-11-17T04:15:45.256Z,1.85
2022-11-17T04:20:50.796Z,1.75
2022-11-17T04:26:12.900Z,1.92
2022-11-17T04:31:18.423Z,1.90
2022-11-17T04:36:22.258Z,1.75
2022-11-17T04:41:43.732Z,1.73
2022-11-17T04:46:47.760Z,1.40
2022-11-17T04:51:50.977Z,1.60
2022-11-17T04:56:54.632Z,1.70
2022-11-17T05:02:04.134Z,1.50
2022-11-17T05:07:09.270Z,1.83
2022-11-17T05:12:29.580Z,1.55
2022-11-17T05:17:33.542Z,1.67
2022-11-17T05:22:50.094Z,1.40
2022-11-17T05:27:54.253Z,1.35
2022-11-17T05:32:58.203Z,1.70
2022-11-17T05:38:00.840Z,1.85
2022-11-17T05:43:03.476Z,1.60
2022-11-17T05:48:08.051Z,1.70
2022-11-17T05:53:10.772Z,1.60
2022-11-17T05:58:16.793Z,1.50
2022-11-17T06:03:22.285Z,1.50
2022-11-17T06:08:24.995Z,1.70
2022-11-17T06:13:29.084Z,1.50
2022-11-17T06:18:35.725Z,1.52
2022-11-17T06:23:38.991Z,1.58
2022-11-17T06:28:43.371Z,1.48
2022-11-17T06:33:47.857Z,1.70
2022-11-17T06:38:50.599Z,1.45
2022-11-17T06:43:53.203Z,1.95
2022-11-17T06:48:57.219Z,2.33
2022-11-17T06:53:59.894Z,2.90
2022-11-17T06:59:02.507Z,2.08
2022-11-17T07:04:07.427Z,2.28
2022-11-17T07:09:10.300Z,2.05
2022-11-17T07:14:12.933Z,2.28
2022-11-17T07:19:16.885Z,2.40
2022-11-17T07:24:19.550Z,1.80
2022-11-17T07:29:22.177Z,2.00
2022-11-17T07:34:26.173Z,2.20
2022-11-17T07:39:28.836Z,1.90
2022-11-17T07:44:32.480Z,1.92
2022-11-17T07:49:36.483Z,2.00
2022-11-17T07:54:39.114Z,2.20
2022-11-17T07:59:41.751Z,2.00
2022-11-17T08:04:45.735Z,1.80
2022-11-17T08:09:48.347Z,1.85
2022-11-17T08:14:50.996Z,2.33
2022-11-17T08:19:55.057Z,2.20
2022-11-17T08:24:57.662Z,1.80
2022-11-17T08:30:00.340Z,2.10
2022-11-17T08:35:06.857Z,1.88
2022-11-17T08:40:10.877Z,1.80
2022-11-17T08:45:14.317Z,1.55
2022-11-17T08:50:20.587Z,1.75
2022-11-17T08:55:23.265Z,1.70
2022-11-17T09:00:25.933Z,1.80
2022-11-17T09:05:29.938Z,1.73
2022-11-17T09:10:32.682Z,2.10
2022-11-17T09:15:35.511Z,1.67
2022-11-17T09:20:45.275Z,1.50
2022-11-17T09:25:48.530Z,1.63
2022-11-17T09:30:51.264Z,1.85
2022-11-17T09:35:58.725Z,1.30
2022-11-17T09:41:01.885Z,2.15
2022-11-17T09:46:11.876Z,2.10
2022-11-17T09:51:18.062Z,1.80
2022-11-17T09:56:20.903Z,2.00
2022-11-17T10:01:24.075Z,1.73
2022-11-17T10:06:29.921Z,1.90
2022-11-17T10:11:34.982Z,2.08
2022-11-17T10:16:38.773Z,1.80
2022-11-17T10:21:42.786Z,1.63
2022-11-17T10:26:47.729Z,1.80
2022-11-17T10:31:50.788Z,1.70
2022-11-17T10:36:54.765Z,1.67
2022-11-17T10:41:57.506Z,1.50
2022-11-17T10:47:02.754Z,1.58
2022-11-17T10:52:16.162Z,1.75
2022-11-17T10:57:21.454Z,1.52
2022-11-17T11:02:29.520Z,1.58
2022-11-17T11:07:33.752Z,1.30
2022-11-17T11:12:41.875Z,1.38
2022-11-17T11:17:44.654Z,1.45
2022-11-17T11:23:00.325Z,1.58
2022-11-17T11:28:14.477Z,1.50
2022-11-17T11:33:26.726Z,1.40
2022-11-17T11:38:42.445Z,1.48
2022-11-17T11:43:54.052Z,1.33
2022-11-17T11:48:58.215Z,1.60
2022-11-17T11:54:05.221Z,1.48
2022-11-17T11:59:11.430Z,1.27
2022-11-17T12:04:23.402Z,1.23
2022-11-17T12:10:01.584Z,1.45
2022-11-17T12:15:09.767Z,1.40
2022-11-17T12:20:41.937Z,1.20
2022-11-17T12:25:53.591Z,1.45
2022-11-17T12:30:59.243Z,1.52
2022-11-17T12:36:30.929Z,1.20
2022-11-17T12:42:07.236Z,1.42
2022-11-17T12:47:12.432Z,1.25
2022-11-17T12:52:18.779Z,1.23
2022-11-17T12:57:26.303Z,1.30
2022-11-17T13:02:54.636Z,1.70
2022-11-17T13:08:17.703Z,1.40
2022-11-17T13:13:24.318Z,1.27
2022-11-17T13:18:31.521Z,1.30
2022-11-17T13:23:34.704Z,1.05
2022-11-17T13:28:38.794Z,1.20
2022-11-17T13:33:41.474Z,1.27
2022-11-17T13:38:51.898Z,1.17
2022-11-17T13:43:56.351Z,1.30
2022-11-17T13:48:59.045Z,1.13
2022-11-17T13:54:03.778Z,1.30
2022-11-17T13:59:23.273Z,1.60
2022-11-17T14:04:26.388Z,1.55
2022-11-17T14:09:31.641Z,1.48
2022-11-17T14:14:37.809Z,1.48
2022-11-17T14:19:40.768Z,1.40
2022-11-17T14:24:43.498Z,1.38
2022-11-17T14:29:47.467Z,1.50
2022-11-17T14:34:50.141Z,1.10
2022-11-17T14:39:52.985Z,1.30
2022-11-17T14:44:57.052Z,1.10
2022-11-17T14:49:59.824Z,1.30
2022-11-17T14:55:02.472Z,1.40
2022-11-17T15:00:09.245Z,1.17
2022-11-17T15:05:12.104Z,1.40
2022-11-17T15:10:14.757Z,1.50
2022-11-17T15:15:19.045Z,1.40
2022-11-17T15:20:21.707Z,1.20
2022-11-17T15:25:24.452Z,1.30
2022-11-17T15:30:28.816Z,1.08
2022-11-17T15:35:31.674Z,1.40
2022-11-17T15:40:34.449Z,1.20
2022-11-17T15:45:38.431Z,1.30
2022-11-17T15:50:41.055Z,1.30
2022-11-17T15:55:43.694Z,1.35
2022-11-17T16:00:47.702Z,1.60
2022-11-17T16:05:50.324Z,1.40
2022-11-17T16:10:55.008Z,1.40
2022-11-17T16:15:59.348Z,1.33
2022-11-17T16:21:06.473Z,1.40
2022-11-17T16:26:10.385Z,1.40
2022-11-17T16:31:15.524Z,1.63
2022-11-17T16:36:18.552Z,1.40
2022-11-17T16:41:21.575Z,1.25
2022-11-17T16:46:28.733Z,1.33
2022-11-17T16:51:31.538Z,1.20
2022-11-17T16:56:35.064Z,1.45
2022-11-17T17:01:39.237Z,1.40
2022-11-17T17:06:42.783Z,1.27
2022-11-17T17:11:45.438Z,1.35
2022-11-17T17:16:49.529Z,1.40
2022-11-17T17:21:52.145Z,1.33
2022-11-17T17:26:54.945Z,1.38
2022-11-17T17:31:58.978Z,1.30
2022-11-17T17:37:01.581Z,1.30
2022-11-17T17:42:06.070Z,1.30
2022-11-17T17:47:10.062Z,1.35
2022-11-17T17:52:14.122Z,1.42
2022-11-17T17:57:16.866Z,1.40
2022-11-17T18:02:20.868Z,1.58
2022-11-17T18:07:23.792Z,1.50
2022-11-17T18:12:26.512Z,1.40
2022-11-17T18:17:30.718Z,1.80
2022-11-17T18:22:33.506Z,1.35
2022-11-17T18:27:36.154Z,1.40
2022-11-17T18:32:40.150Z,1.50
2022-11-17T18:37:42.909Z,1.70
2022-11-17T18:42:45.541Z,1.25
2022-11-17T18:47:49.615Z,1.40
2022-11-17T18:52:52.267Z,1.60
2022-11-17T18:57:54.928Z,1.25
2022-11-17T19:02:58.938Z,1.30
2022-11-17T19:08:01.619Z,1.55
2022-11-17T19:13:04.714Z,1.48
2022-11-17T19:18:08.949Z,1.50
2022-11-17T19:23:12.015Z,1.10
2022-11-17T19:28:14.710Z,1.27
2022-11-17T19:33:19.024Z,1.30
2022-11-17T19:38:21.698Z,1.35
2022-11-17T19:43:24.429Z,1.23
2022-11-17T19:48:29.258Z,1.13
2022-11-17T19:53:33.882Z,1.30
2022-11-17T19:58:36.555Z,1.20
2022-11-17T20:03:41.360Z,1.50
2022-11-17T20:08:44.382Z,1.23
2022-11-17T20:13:47.469Z,1.35
2022-11-17T20:18:53.305Z,1.50
2022-11-17T20:23:56.350Z,1.20
2022-11-17T20:29:00.128Z,1.23
2022-11-17T20:34:05.935Z,1.38
2022-11-17T20:39:08.662Z,1.10
2022-11-17T20:44:23.853Z,1.33
2022-11-17T20:49:28.888Z,1.30
2022-11-17T20:54:31.598Z,1.20
2022-11-17T20:59:34.359Z,1.20
2022-11-17T21:04:38.430Z,1.30
2022-11-17T21:09:41.115Z,1.55
2022-11-17T21:14:43.765Z,1.30
2022-11-17T21:19:47.815Z,1.50
2022-11-17T21:24:50.553Z,1.20
2022-11-17T21:29:53.239Z,1.45
2022-11-17T21:34:57.395Z,1.10
2022-11-17T21:40:01.062Z,1.58
2022-11-17T21:45:03.844Z,1.20
2022-11-17T21:50:09.401Z,1.35
2022-11-17T21:55:12.077Z,1.20
2022-11-17T22:00:16.399Z,1.23
2022-11-17T22:05:22.131Z,1.15
2022-11-17T22:10:24.858Z,1.40
2022-11-17T22:15:27.559Z,1.25
2022-11-17T22:20:31.581Z,1.10
2022-11-17T22:25:49.565Z,1.10
2022-11-17T22:30:52.862Z,1.20
2022-11-17T22:36:00.054Z,1.15
2022-11-17T22:41:02.877Z,1.20
2022-11-17T22:46:08.101Z,1.20
2022-11-17T22:51:12.411Z,1.20
2022-11-17T22:56:15.169Z,1.30
2022-11-17T23:01:17.911Z,1.20
2022-11-17T23:06:22.525Z,1.10
2022-11-17T23:11:40.806Z,1.20
2022-11-17T23:16:43.581Z,1.10
2022-11-17T23:21:47.627Z,1.20
2022-11-17T23:26:50.355Z,1.20
2022-11-17T23:31:53.084Z,1.20
2022-11-17T23:37:02.309Z,1.10
2022-11-17T23:42:06.792Z,0.90
2022-11-17T23:47:09.584Z,0.95
2022-11-17T23:52:13.599Z,1.20
2022-11-17T23:57:16.359Z,1.10
